createdAt,value
2022-08-01T00:01:21.911Z,100823.56
2022-08-01T00:03:52.648Z,100787.69
2022-08-01T00:06:22.502Z,100818.53
2022-08-01T00:08:54.284Z,100816.69
2022-08-01T00:11:24.122Z,100819.59
2022-08-01T00:13:53.844Z,100774.25
2022-08-01T00:16:26.329Z,100796.41
2022-08-01T00:18:56.554Z,100811.78
2022-08-01T00:21:26.209Z,100792.06
2022-08-01T00:23:55.828Z,100814.28
2022-08-01T00:26:25.545Z,100818.69
2022-08-01T00:28:55.299Z,100812.78
2022-08-01T00:31:27.526Z,100824.03
2022-08-01T00:33:57.566Z,100809.53
2022-08-01T00:36:27.205Z,100823.88
2022-08-01T00:38:56.920Z,100815.38
2022-08-01T00:41:26.708Z,100818.81
2022-08-01T00:43:56.359Z,100826.75
2022-08-01T00:46:28.624Z,100817.97
2022-08-01T00:48:58.530Z,100823.22
2022-08-01T00:51:29.126Z,100818.94
2022-08-01T00:53:59.140Z,100828.53
2022-08-01T00:56:32.061Z,100828.53
2022-08-01T00:59:02.178Z,100808.00
2022-08-01T01:01:39.981Z,100839.50
2022-08-01T01:04:09.804Z,100831.06
2022-08-01T01:06:51.447Z,100819.00
2022-08-01T01:09:38.811Z,100828.50
2022-08-01T01:12:19.427Z,100766.91
2022-08-01T01:14:56.822Z,100836.25
2022-08-01T01:17:49.749Z,100831.91
2022-08-01T01:20:23.226Z,100822.63
2022-08-01T01:23:14.140Z,100830.22
2022-08-01T01:25:54.986Z,100822.63
2022-08-01T01:28:35.007Z,100821.13
2022-08-01T01:31:10.990Z,100807.38
2022-08-01T01:33:47.295Z,100833.34
2022-08-01T01:36:20.513Z,100835.28
2022-08-01T01:38:51.706Z,100772.09
2022-08-01T01:41:22.536Z,100837.97
2022-08-01T01:43:54.300Z,100839.66
2022-08-01T01:46:29.898Z,100829.31
2022-08-01T01:49:00.423Z,100785.66
2022-08-01T01:51:32.177Z,100812.13
2022-08-01T01:54:04.835Z,100832.66
2022-08-01T01:56:35.019Z,100820.00
2022-08-01T01:59:07.705Z,100840.38
2022-08-01T02:02:05.236Z,100827.56
2022-08-01T02:04:31.900Z,100845.56
2022-08-01T02:07:02.685Z,100838.69
2022-08-01T02:09:34.297Z,100807.81
2022-08-01T02:12:08.178Z,100838.53
2022-08-01T02:14:41.924Z,100836.91
2022-08-01T02:17:16.092Z,100778.81
2022-08-01T02:19:46.227Z,100849.16
2022-08-01T02:22:21.930Z,100837.41
2022-08-01T02:24:55.923Z,100844.09
2022-08-01T02:27:35.073Z,100852.72
2022-08-01T02:30:08.434Z,100854.56
2022-08-01T02:32:46.627Z,100847.59
2022-08-01T02:35:21.773Z,100866.56
2022-08-01T02:37:52.757Z,100844.41
2022-08-01T02:40:23.428Z,100853.81
2022-08-01T02:42:56.485Z,100846.91
2022-08-01T02:45:29.676Z,100864.00
2022-08-01T02:48:08.691Z,100862.31
2022-08-01T02:50:39.901Z,100835.00
2022-08-01T02:53:11.329Z,100803.38
2022-08-01T02:55:43.504Z,100843.53
2022-08-01T02:58:16.048Z,100808.47
2022-08-01T03:00:48.738Z,100870.00
2022-08-01T03:03:21.753Z,100875.13
2022-08-01T03:05:52.416Z,100868.31
2022-08-01T03:08:23.984Z,100874.28
2022-08-01T03:10:55.994Z,100872.59
2022-08-01T03:13:26.739Z,100871.88
2022-08-01T03:15:59.570Z,100849.69
2022-08-01T03:18:32.699Z,100879.53
2022-08-01T03:21:03.598Z,100868.56
2022-08-01T03:23:38.085Z,100879.72
2022-08-01T03:26:09.649Z,100882.44
2022-08-01T03:28:42.357Z,100884.22
2022-08-01T03:31:13.182Z,100868.06
2022-08-01T03:33:45.472Z,100867.22
2022-08-01T03:36:16.686Z,100837.25
2022-08-01T03:38:48.768Z,100883.44
2022-08-01T03:41:24.755Z,100887.63
2022-08-01T03:43:59.527Z,100862.06
2022-08-01T03:46:35.384Z,100883.53
2022-08-01T03:49:15.077Z,100891.22
2022-08-01T03:51:46.126Z,100839.91
2022-08-01T03:54:17.196Z,100899.88
2022-08-01T03:56:49.827Z,100873.34
2022-08-01T03:59:20.535Z,100875.06
2022-08-01T04:01:51.454Z,100911.13
2022-08-01T04:04:24.016Z,100902.72
2022-08-01T04:06:55.091Z,100889.94
2022-08-01T04:09:25.388Z,100904.38
2022-08-01T04:11:55.085Z,100895.81
2022-08-01T04:14:24.942Z,100912.13
2022-08-01T04:16:54.750Z,100913.06
2022-08-01T04:19:27.200Z,100862.47
2022-08-01T04:21:57.721Z,100908.59
2022-08-01T04:24:31.051Z,100916.41
2022-08-01T04:27:03.971Z,100912.88
2022-08-01T04:29:35.542Z,100924.97
2022-08-01T04:32:06.046Z,100918.81
2022-08-01T04:34:41.028Z,100921.53
2022-08-01T04:37:13.464Z,100925.91
2022-08-01T04:39:50.392Z,100925.91
2022-08-01T04:42:26.769Z,100937.81
2022-08-01T04:45:00.804Z,100939.72
2022-08-01T04:47:30.859Z,100937.94
2022-08-01T04:50:03.457Z,100936.31
2022-08-01T04:52:37.018Z,100913.22
2022-08-01T04:55:08.404Z,100940.63
2022-08-01T04:57:41.161Z,100954.47
2022-08-01T05:00:12.265Z,100920.25
2022-08-01T05:02:42.136Z,100940.78
2022-08-01T05:05:15.910Z,100966.56
2022-08-01T05:07:45.842Z,100957.13
2022-08-01T05:10:15.725Z,100955.28
2022-08-01T05:12:45.373Z,100915.91
2022-08-01T05:15:15.782Z,100958.72
2022-08-01T05:17:45.908Z,100898.69
2022-08-01T05:20:18.160Z,100966.25
2022-08-01T05:22:48.125Z,100967.19
2022-08-01T05:25:20.394Z,100956.84
2022-08-01T05:27:58.166Z,100943.00
2022-08-01T05:30:27.855Z,100955.88
2022-08-01T05:32:57.620Z,100962.47
2022-08-01T05:35:48.165Z,100955.41
2022-08-01T05:38:18.801Z,100952.91
2022-08-01T05:40:49.624Z,100959.44
2022-08-01T05:43:20.500Z,100951.69
2022-08-01T05:45:52.043Z,100961.00
2022-08-01T05:48:22.743Z,100956.78
2022-08-01T05:50:58.737Z,100957.53
2022-08-01T05:53:28.933Z,100947.25
2022-08-01T05:55:59.661Z,100948.47
2022-08-01T05:58:30.377Z,100964.81
2022-08-01T06:01:00.156Z,100981.00
2022-08-01T06:03:32.258Z,100972.63
2022-08-01T06:06:05.985Z,100989.81
2022-08-01T06:08:35.741Z,100989.16
2022-08-01T06:11:07.163Z,101001.00
2022-08-01T06:13:44.904Z,100988.28
2022-08-01T06:16:18.148Z,101004.91
2022-08-01T06:18:52.792Z,101016.47
2022-08-01T06:21:29.312Z,101015.94
2022-08-01T06:23:59.046Z,101009.25
2022-08-01T06:26:29.771Z,101010.41
2022-08-01T06:29:00.636Z,101009.69
2022-08-01T06:31:33.955Z,101000.38
2022-08-01T06:34:05.938Z,101002.16
2022-08-01T06:36:39.417Z,101009.72
2022-08-01T06:39:09.185Z,101016.38
2022-08-01T06:41:38.918Z,100969.91
2022-08-01T06:44:08.716Z,101025.53
2022-08-01T06:46:39.398Z,101016.81
2022-08-01T06:49:09.286Z,100969.09
2022-08-01T06:51:41.740Z,101019.63
2022-08-01T06:54:12.459Z,101006.75
2022-08-01T06:56:42.145Z,101030.63
2022-08-01T06:59:11.989Z,101012.59
2022-08-01T07:01:42.163Z,101027.94
2022-08-01T07:04:11.869Z,101025.38
2022-08-01T07:06:44.198Z,101037.19
2022-08-01T07:09:15.915Z,101039.78
2022-08-01T07:11:45.672Z,101037.06
2022-08-01T07:14:15.342Z,100988.09
2022-08-01T07:16:45.120Z,101040.16
2022-08-01T07:19:15.288Z,101022.34
2022-08-01T07:21:50.072Z,100994.84
2022-08-01T07:24:21.653Z,101036.72
2022-08-01T07:26:55.108Z,101042.66
2022-08-01T07:29:27.054Z,101043.50
2022-08-01T07:31:59.486Z,100992.19
2022-08-01T07:34:30.303Z,101039.13
2022-08-01T07:37:02.661Z,101024.59
2022-08-01T07:39:32.370Z,101033.03
2022-08-01T07:42:06.263Z,101035.13
2022-08-01T07:44:38.052Z,101010.91
2022-08-01T07:47:08.724Z,101041.56
2022-08-01T07:49:41.288Z,101046.53
2022-08-01T07:52:15.158Z,101040.47
2022-08-01T07:54:49.204Z,101041.13
2022-08-01T07:57:22.628Z,101043.06
2022-08-01T07:59:53.480Z,101053.69
2022-08-01T08:02:24.265Z,101068.81
2022-08-01T08:04:54.029Z,101034.69
2022-08-01T08:07:27.389Z,101068.44
2022-08-01T08:09:58.156Z,101078.28
2022-08-01T08:12:29.955Z,101075.75
2022-08-01T08:15:01.480Z,101075.59
2022-08-01T08:17:35.693Z,101027.50
2022-08-01T08:20:09.769Z,101074.56
2022-08-01T08:22:43.413Z,101077.03
2022-08-01T08:25:14.252Z,101080.84
2022-08-01T08:27:46.047Z,101086.16
2022-08-01T08:30:19.599Z,101089.97
2022-08-01T08:32:52.482Z,101086.47
2022-08-01T08:35:40.561Z,101081.25
2022-08-01T08:38:17.503Z,101089.69
2022-08-01T08:40:49.816Z,101096.38
2022-08-01T08:43:20.497Z,101102.00
2022-08-01T08:45:59.547Z,101084.47
2022-08-01T08:48:32.162Z,101105.81
2022-08-01T08:51:04.266Z,101093.09
2022-08-01T08:53:39.612Z,101097.31
2022-08-01T08:56:12.020Z,101107.09
2022-08-01T08:58:42.153Z,101107.28
2022-08-01T09:01:13.575Z,101123.75
2022-08-01T09:03:44.135Z,101124.81
2022-08-01T09:06:15.366Z,101108.69
2022-08-01T09:08:48.700Z,101095.81
2022-08-01T09:11:22.953Z,101128.56
2022-08-01T09:14:11.603Z,101126.06
2022-08-01T09:16:48.852Z,101126.84
2022-08-01T09:19:39.487Z,101136.13
2022-08-01T09:22:13.147Z,101147.06
2022-08-01T09:25:01.615Z,101137.91
2022-08-01T09:27:36.248Z,101124.88
2022-08-01T09:30:13.173Z,101124.81
2022-08-01T09:32:58.205Z,101143.00
2022-08-01T09:35:36.420Z,101151.66
2022-08-01T09:38:19.097Z,101099.25
2022-08-01T09:40:58.137Z,101141.88
2022-08-01T09:43:31.671Z,101167.69
2022-08-01T09:46:03.703Z,101157.63
2022-08-01T09:48:35.490Z,101156.63
2022-08-01T09:51:09.765Z,101162.38
2022-08-01T09:53:51.199Z,101163.13
2022-08-01T09:56:26.870Z,101168.53
2022-08-01T09:59:02.389Z,101146.97
2022-08-01T10:01:47.169Z,101169.19
2022-08-01T10:04:20.837Z,101173.88
2022-08-01T10:06:55.309Z,101012.63
2022-08-01T10:09:39.643Z,101176.53
2022-08-01T10:12:17.477Z,101176.56
2022-08-01T10:14:50.787Z,101150.03
2022-08-01T10:17:23.935Z,101164.31
2022-08-01T10:20:30.648Z,101168.44
2022-08-01T10:23:06.170Z,101171.75
2022-08-01T10:25:47.383Z,101173.00
2022-08-01T10:28:24.057Z,101151.28
2022-08-01T10:30:54.357Z,101184.22
2022-08-01T10:33:51.171Z,101189.47
2022-08-01T10:36:18.076Z,101169.06
2022-08-01T10:38:49.690Z,101191.31
2022-08-01T10:41:22.358Z,101191.13
2022-08-01T10:43:55.811Z,101167.00
2022-08-01T10:46:26.307Z,101185.69
2022-08-01T10:49:04.687Z,101170.88
2022-08-01T10:51:52.656Z,101176.22
2022-08-01T10:54:28.632Z,101136.16
2022-08-01T10:57:03.827Z,101177.88
2022-08-01T10:59:50.802Z,101182.50
2022-08-01T11:02:32.565Z,101193.59
2022-08-01T11:05:06.739Z,101189.94
2022-08-01T11:07:47.878Z,101170.81
2022-08-01T11:10:26.786Z,101169.06
2022-08-01T11:13:00.037Z,101173.47
2022-08-01T11:15:33.557Z,101179.59
2022-08-01T11:18:06.591Z,101192.19
2022-08-01T11:20:41.920Z,101175.63
2022-08-01T11:23:23.500Z,101192.41
2022-08-01T11:26:14.142Z,101179.25
2022-08-01T11:29:17.984Z,101188.19
2022-08-01T11:31:43.165Z,101173.59
2022-08-01T11:34:15.590Z,101185.97
2022-08-01T11:37:03.247Z,101193.97
2022-08-01T11:39:38.261Z,101185.63
2022-08-01T11:42:23.670Z,101178.06
2022-08-01T11:44:58.362Z,101182.94
2022-08-01T11:47:50.933Z,101187.72
2022-08-01T11:50:40.000Z,101157.34
2022-08-01T11:53:12.658Z,101183.78
2022-08-01T11:55:51.527Z,101146.00
2022-08-01T11:58:29.416Z,101140.56
2022-08-01T12:01:03.039Z,101178.97
2022-08-01T12:03:36.720Z,101188.00
2022-08-01T12:06:07.822Z,101152.50
2022-08-01T12:08:39.746Z,101180.31
2022-08-01T12:11:09.701Z,101189.03
2022-08-01T12:13:45.897Z,101191.78
2022-08-01T12:16:16.185Z,101160.19
2022-08-01T12:18:49.747Z,101191.69
2022-08-01T12:21:20.377Z,101192.19
2022-08-01T12:24:04.051Z,101195.47
2022-08-01T12:26:43.917Z,101179.63
2022-08-01T12:29:13.634Z,101193.22
2022-08-01T12:31:44.526Z,101193.25
2022-08-01T12:34:35.162Z,101186.16
2022-08-01T12:37:07.213Z,101187.28
2022-08-01T12:39:40.066Z,101199.19
2022-08-01T12:42:11.924Z,101202.44
2022-08-01T12:44:42.738Z,101197.38
2022-08-01T12:47:12.813Z,101197.94
2022-08-01T12:49:48.052Z,101209.53
2022-08-01T12:52:22.554Z,101204.44
2022-08-01T12:55:09.681Z,101213.28
2022-08-01T12:57:45.653Z,101211.63
2022-08-01T13:00:20.896Z,101208.63
2022-08-01T13:02:52.252Z,101213.44
2022-08-01T13:05:28.654Z,101159.56
2022-08-01T13:07:59.370Z,101204.63
2022-08-01T13:10:36.872Z,101198.34
2022-08-01T13:13:07.927Z,101207.91
2022-08-01T13:15:41.766Z,101206.56
2022-08-01T13:18:29.832Z,101202.19
2022-08-01T13:21:17.637Z,101135.13
2022-08-01T13:24:06.274Z,101193.03
2022-08-01T13:26:44.804Z,101193.28
2022-08-01T13:29:17.886Z,101195.09
2022-08-01T13:31:49.706Z,101196.78
2022-08-01T13:34:21.038Z,101201.22
2022-08-01T13:36:55.316Z,101189.56
2022-08-01T13:39:38.137Z,101168.78
2022-08-01T13:42:10.426Z,101184.72
2022-08-01T13:44:42.314Z,101186.97
2022-08-01T13:47:15.117Z,101139.28
2022-08-01T13:49:46.962Z,101150.56
2022-08-01T13:52:20.418Z,101177.38
2022-08-01T13:54:55.121Z,101191.75
2022-08-01T13:57:25.913Z,101170.50
2022-08-01T14:00:11.228Z,101200.06
2022-08-01T14:02:44.619Z,101199.22
2022-08-01T14:05:15.390Z,101184.66
2022-08-01T14:07:48.965Z,101177.84
2022-08-01T14:10:20.662Z,101205.53
2022-08-01T14:12:51.952Z,101196.78
2022-08-01T14:15:38.215Z,101182.84
2022-08-01T14:18:11.149Z,101186.19
2022-08-01T14:20:42.670Z,101197.09
2022-08-01T14:23:16.140Z,101200.97
2022-08-01T14:26:03.476Z,101191.03
2022-08-01T14:28:39.565Z,101193.28
2022-08-01T14:31:09.863Z,101194.41
2022-08-01T14:33:42.280Z,101168.75
2022-08-01T14:36:29.534Z,101200.47
2022-08-01T14:39:04.928Z,101159.69
2022-08-01T14:41:36.588Z,101164.19
2022-08-01T14:44:06.854Z,101206.25
2022-08-01T14:46:36.646Z,101199.75
2022-08-01T14:49:12.445Z,101206.47
2022-08-01T14:51:42.422Z,101206.47
2022-08-01T14:54:14.839Z,101207.34
2022-08-01T14:56:46.630Z,101212.50
2022-08-01T14:59:21.855Z,101212.00
2022-08-01T15:01:51.839Z,101204.34
2022-08-01T15:04:21.632Z,101203.91
2022-08-01T15:06:51.450Z,101201.81
2022-08-01T15:09:24.238Z,101198.84
2022-08-01T15:11:54.055Z,101190.59
2022-08-01T15:14:36.317Z,101197.06
2022-08-01T15:17:07.591Z,101206.47
2022-08-01T15:19:41.919Z,101200.31
2022-08-01T15:22:13.082Z,101179.66
2022-08-01T15:24:46.965Z,101159.69
2022-08-01T15:27:16.775Z,101183.44
2022-08-01T15:29:46.593Z,101192.53
2022-08-01T15:32:17.958Z,101185.88
2022-08-01T15:34:48.118Z,101199.50
2022-08-01T15:37:19.012Z,101208.13
2022-08-01T15:39:51.449Z,101191.13
2022-08-01T15:42:27.027Z,101203.88
2022-08-01T15:44:57.240Z,101200.50
2022-08-01T15:47:26.940Z,101205.03
2022-08-01T15:50:00.476Z,101205.91
2022-08-01T15:52:31.616Z,101205.06
2022-08-01T15:55:04.409Z,101197.72
2022-08-01T15:57:35.176Z,101178.97
2022-08-01T16:00:05.210Z,101160.63
2022-08-01T16:02:42.581Z,101203.66
2022-08-01T16:05:13.620Z,101195.59
2022-08-01T16:08:01.766Z,101216.56
2022-08-01T16:10:34.581Z,101203.47
2022-08-01T16:13:07.229Z,101212.22
2022-08-01T16:15:39.348Z,101198.34
2022-08-01T16:18:16.248Z,101208.03
2022-08-01T16:20:46.412Z,101197.69
2022-08-01T16:23:20.390Z,101196.88
2022-08-01T16:25:52.756Z,101200.03
2022-08-01T16:28:23.586Z,101205.16
2022-08-01T16:31:14.943Z,101202.75
2022-08-01T16:33:53.055Z,101212.28
2022-08-01T16:36:25.262Z,101213.28
2022-08-01T16:38:55.216Z,101199.44
2022-08-01T16:41:27.534Z,101209.06
2022-08-01T16:43:57.392Z,101204.19
2022-08-01T16:46:27.659Z,101212.88
2022-08-01T16:48:58.562Z,101204.97
2022-08-01T16:51:28.360Z,101189.16
2022-08-01T16:54:02.861Z,101197.75
2022-08-01T16:56:35.880Z,101210.19
2022-08-01T16:59:06.658Z,101171.66
2022-08-01T17:01:58.982Z,101202.25
2022-08-01T17:04:30.461Z,101203.56
2022-08-01T17:07:00.886Z,101199.72
2022-08-01T17:09:31.731Z,101207.44
2022-08-01T17:12:06.829Z,101201.44
2022-08-01T17:14:40.015Z,101199.00
2022-08-01T17:17:11.114Z,101208.66
2022-08-01T17:19:42.177Z,101200.06
2022-08-01T17:22:13.205Z,101197.47
2022-08-01T17:24:43.973Z,101187.72
2022-08-01T17:27:17.773Z,101191.81
2022-08-01T17:29:48.889Z,101199.50
2022-08-01T17:32:23.171Z,101190.53
2022-08-01T17:34:53.897Z,101186.28
2022-08-01T17:37:25.627Z,101166.63
2022-08-01T17:39:55.475Z,101202.53
2022-08-01T17:42:30.301Z,101194.78
2022-08-01T17:45:01.078Z,101213.63
2022-08-01T17:47:50.222Z,101198.19
2022-08-01T17:50:21.448Z,101190.72
2022-08-01T17:52:53.209Z,101191.94
2022-08-01T17:55:55.516Z,101207.59
2022-08-01T17:58:49.132Z,101211.34
2022-08-01T18:01:10.040Z,101219.06
2022-08-01T18:03:41.937Z,101209.53
2022-08-01T18:06:13.759Z,101224.03
2022-08-01T18:08:47.499Z,101216.47
2022-08-01T18:11:19.429Z,101217.03
2022-08-01T18:13:53.479Z,101208.19
2022-08-01T18:16:25.239Z,101207.34
2022-08-01T18:18:56.135Z,101218.91
2022-08-01T18:21:26.986Z,101216.56
2022-08-01T18:23:57.744Z,101214.28
2022-08-01T18:26:27.670Z,101218.59
2022-08-01T18:29:00.001Z,101182.84
2022-08-01T18:31:30.759Z,101205.91
2022-08-01T18:34:01.565Z,101218.88
2022-08-01T18:36:32.929Z,101206.06
2022-08-01T18:39:10.042Z,101209.38
2022-08-01T18:41:43.241Z,101196.38
2022-08-01T18:44:19.963Z,101197.13
2022-08-01T18:46:55.855Z,101202.22
2022-08-01T18:49:32.538Z,101216.00
2022-08-01T21:22:00.219Z,101387.09
2022-08-01T21:24:40.481Z,101390.59
2022-08-01T21:27:11.015Z,101380.28
2022-08-01T21:29:42.057Z,101362.22
2022-08-01T21:32:16.130Z,101340.69
2022-08-01T21:34:50.274Z,101361.38
2022-08-01T21:37:25.861Z,101360.53
2022-08-01T21:39:56.648Z,101387.19
2022-08-01T21:42:29.415Z,101307.09
2022-08-01T21:45:05.143Z,101375.97
2022-08-01T21:47:34.865Z,101377.72
2022-08-01T21:50:05.453Z,101378.59
2022-08-01T21:52:46.954Z,101351.03
2022-08-01T21:55:34.883Z,101345.00
2022-08-01T21:58:26.468Z,101305.38
2022-08-01T22:01:02.941Z,101356.19
2022-08-01T22:03:38.425Z,101337.25
2022-08-01T22:06:09.829Z,101337.25
2022-08-01T22:08:51.455Z,101340.66
2022-08-01T22:11:24.198Z,101358.75
2022-08-01T22:13:57.633Z,101360.50
2022-08-01T22:16:29.333Z,101337.28
2022-08-01T22:19:00.057Z,101333.88
2022-08-01T22:21:30.197Z,101357.13
2022-08-01T22:24:03.582Z,101360.59
2022-08-01T22:26:35.654Z,101365.75
2022-08-01T22:29:05.712Z,101359.72
2022-08-01T22:31:38.175Z,101369.19
2022-08-01T22:34:09.417Z,101339.91
2022-08-01T22:36:39.349Z,101360.56
2022-08-01T22:39:11.713Z,101378.66
2022-08-01T22:42:01.254Z,101365.72
2022-08-01T22:44:37.643Z,101368.28
2022-08-01T22:47:14.132Z,101340.72
2022-08-01T22:49:57.105Z,101368.28
2022-08-01T22:52:31.285Z,101376.06
2022-08-01T22:55:07.693Z,101374.31
2022-08-01T22:57:50.152Z,101375.97
2022-08-01T23:00:21.197Z,101375.94
2022-08-01T23:02:56.385Z,101361.31
2022-08-01T23:05:28.239Z,101332.84
2022-08-01T23:07:59.460Z,101385.34
2022-08-01T23:10:31.724Z,101370.72
2022-08-01T23:13:03.818Z,101383.66
2022-08-01T23:15:34.619Z,101364.72
2022-08-01T23:18:05.682Z,101373.34
2022-08-01T23:20:37.608Z,101381.97
2022-08-01T23:23:07.900Z,101351.81
2022-08-01T23:25:41.568Z,101365.59
2022-08-01T23:28:11.747Z,101338.00
2022-08-01T23:30:41.772Z,101370.72
2022-08-01T23:33:11.552Z,101377.63
2022-08-01T23:35:45.176Z,101369.88
2022-08-01T23:38:16.107Z,101375.03
2022-08-01T23:40:50.123Z,101361.22
2022-08-01T23:43:20.083Z,101349.19
2022-08-01T23:46:04.171Z,101362.06
2022-08-01T23:48:36.186Z,101377.53
2022-08-01T23:51:06.714Z,101375.78
2022-08-01T23:53:38.400Z,101371.44
2022-08-01T23:56:11.077Z,101373.13
2022-08-01T23:58:43.632Z,101369.66
